Time,TemperatureF,DewpointF,PressureIn,WindDirection,WindDirectionDegrees,WindSpeedMPH,WindSpeedGustMPH,Humidity,HourlyPrecipIn,Conditions,Clouds,dailyrainin,SoftwareType,DateUTC
2013-02-23 00:11:00,28.0,19.0,-100.00,SSW,200,8.0,14.0,67,-99.99,,,0.00,,2013-02-23 07:11:00,
2013-02-23 00:21:00,28.0,19.0,-100.00,SSW,200,8.0,14.0,67,-99.99,,,0.00,,2013-02-23 07:21:00,
2013-02-23 01:01:00,27.0,18.0,-100.00,SW,235,11.0,16.0,70,-99.99,,,0.00,,2013-02-23 08:01:00,
2013-02-23 01:11:00,27.0,18.0,-100.00,SW,230,9.0,19.0,69,-99.99,,,0.00,,2013-02-23 08:11:00,
2013-02-23 01:21:00,27.0,18.0,-100.00,SW,230,9.0,19.0,69,-99.99,,,0.00,,2013-02-23 08:21:00,
2013-02-23 01:31:00,27.0,18.0,-100.00,SW,235,11.0,16.0,70,-99.99,,,0.00,,2013-02-23 08:31:00,
2013-02-23 01:41:00,27.0,18.0,-100.00,SW,235,11.0,16.0,70,-99.99,,,0.00,,2013-02-23 08:41:00,
2013-02-23 01:52:00,27.0,18.0,-100.00,SW,235,11.0,16.0,70,-99.99,,,0.00,,2013-02-23 08:52:00,
2013-02-23 02:11:00,26.0,19.0,-100.00,WSW,250,9.0,12.0,72,-99.99,,,0.00,,2013-02-23 09:11:00,
2013-02-23 02:21:00,26.0,19.0,-100.00,WSW,250,9.0,12.0,72,-99.99,,,0.00,,2013-02-23 09:21:00,
2013-02-23 02:31:00,26.0,19.0,-100.00,WSW,250,9.0,12.0,72,-99.99,,,0.00,,2013-02-23 09:31:00,
2013-02-23 03:11:00,27.0,20.0,-100.00,WSW,255,7.0,9.0,76,-99.99,,,0.00,,2013-02-23 10:11:00,
2013-02-23 03:21:00,27.0,20.0,-100.00,WSW,255,7.0,9.0,76,-99.99,,,0.00,,2013-02-23 10:21:00,
2013-02-23 03:31:00,27.0,20.0,-100.00,WSW,255,7.0,9.0,76,-99.99,,,0.00,,2013-02-23 10:31:00,
2013-02-23 04:01:00,22.0,20.0,-100.00,WSW,240,9.0,12.0,92,-99.99,,,0.00,,2013-02-23 11:01:00,
2013-02-23 04:11:00,25.0,23.0,-100.00,WNW,300,12.0,18.0,90,-99.99,,,0.00,,2013-02-23 11:11:00,
2013-02-23 04:21:00,25.0,23.0,-100.00,WNW,300,12.0,18.0,90,-99.99,,,0.00,,2013-02-23 11:21:00,
2013-02-23 04:32:00,22.0,20.0,-100.00,WSW,240,9.0,12.0,92,-99.99,,,0.00,,2013-02-23 11:32:00,
2013-02-23 04:41:00,22.0,20.0,-100.00,WSW,240,9.0,12.0,92,-99.99,,,0.00,,2013-02-23 11:41:00,
2013-02-23 04:52:00,22.0,20.0,-100.00,WSW,240,9.0,12.0,92,-99.99,,,0.00,,2013-02-23 11:52:00,
2013-02-23 05:01:00,21.0,19.0,-100.00,WSW,245,7.0,11.0,92,-99.99,,,0.00,,2013-02-23 12:01:00,
2013-02-23 05:11:00,22.0,20.0,-100.00,WSW,245,5.0,7.0,92,-99.99,,,0.00,,2013-02-23 12:11:00,
2013-02-23 05:21:00,22.0,20.0,-100.00,WSW,245,5.0,7.0,92,-99.99,,,0.00,,2013-02-23 12:21:00,
2013-02-23 05:32:00,21.0,19.0,-100.00,WSW,245,7.0,11.0,92,-99.99,,,0.00,,2013-02-23 12:32:00,
2013-02-23 05:42:00,21.0,19.0,-100.00,WSW,245,7.0,11.0,92,-99.99,,,0.00,,2013-02-23 12:42:00,
2013-02-23 05:52:00,21.0,19.0,-100.00,WSW,245,7.0,11.0,92,-99.99,,,0.00,,2013-02-23 12:52:00,
2013-02-23 06:11:00,20.0,19.0,-100.00,West,270,9.0,14.0,92,-99.99,,,0.00,,2013-02-23 13:11:00,
2013-02-23 06:22:00,20.0,19.0,-100.00,West,270,9.0,14.0,92,-99.99,,,0.00,,2013-02-23 13:22:00,
2013-02-23 06:31:00,20.0,18.0,-100.00,West,280,8.0,10.0,91,-99.99,,,0.00,,2013-02-23 13:31:00,
2013-02-23 06:42:00,20.0,18.0,-100.00,West,280,8.0,10.0,91,-99.99,,,0.00,,2013-02-23 13:42:00,
2013-02-23 06:52:00,20.0,18.0,-100.00,West,280,8.0,10.0,91,-99.99,,,0.00,,2013-02-23 13:52:00,
2013-02-23 07:00:00,18.0,16.0,-100.00,SW,225,14.0,19.0,90,-99.99,,,0.00,,2013-02-23 14:00:00,
2013-02-23 07:02:00,20.0,18.0,-100.00,West,280,8.0,10.0,91,-99.99,,,0.00,,2013-02-23 14:02:00,
2013-02-23 07:11:00,19.0,17.0,-100.00,West,260,9.0,14.0,89,-99.99,,,0.00,,2013-02-23 14:11:00,
2013-02-23 07:21:00,19.0,17.0,-100.00,West,260,9.0,14.0,89,-99.99,,,0.00,,2013-02-23 14:21:00,
2013-02-23 07:32:00,18.0,16.0,-100.00,SW,225,14.0,19.0,90,-99.99,,,0.00,,2013-02-23 14:32:00,
2013-02-23 07:41:00,18.0,16.0,-100.00,SW,225,14.0,19.0,90,-99.99,,,0.00,,2013-02-23 14:41:00,
2013-02-23 07:52:00,18.0,16.0,-100.00,SW,225,14.0,19.0,90,-99.99,,,0.00,,2013-02-23 14:52:00,
2013-02-23 08:00:00,18.0,10.0,-100.00,WSW,240,11.0,15.0,71,-99.99,,,0.00,,2013-02-23 15:00:00,
2013-02-23 08:11:00,18.0,13.0,-100.00,SW,230,11.0,12.0,81,-99.99,,,0.00,,2013-02-23 15:11:00,
2013-02-23 08:21:00,18.0,13.0,-100.00,SW,230,11.0,12.0,81,-99.99,,,0.00,,2013-02-23 15:21:00,
2013-02-23 08:31:00,18.0,10.0,-100.00,WSW,240,11.0,15.0,71,-99.99,,,0.00,,2013-02-23 15:31:00,
2013-02-23 08:41:00,18.0,10.0,-100.00,WSW,240,11.0,15.0,71,-99.99,,,0.00,,2013-02-23 15:41:00,
2013-02-23 08:51:00,18.0,10.0,-100.00,WSW,240,11.0,15.0,71,-99.99,,,0.00,,2013-02-23 15:51:00,
2013-02-23 09:11:00,18.0,10.0,-100.00,SW,235,15.0,20.0,70,-99.99,,,0.00,,2013-02-23 16:11:00,
2013-02-23 09:21:00,18.0,10.0,-100.00,SW,235,15.0,20.0,70,-99.99,,,0.00,,2013-02-23 16:21:00,
2013-02-23 09:31:00,17.0,9.0,-100.00,WSW,240,9.0,17.0,71,-99.99,,,0.00,,2013-02-23 16:31:00,
2013-02-23 09:42:00,17.0,9.0,-100.00,WSW,240,9.0,17.0,71,-99.99,,,0.00,,2013-02-23 16:42:00,
2013-02-23 09:51:00,17.0,9.0,-100.00,WSW,240,9.0,17.0,71,-99.99,,,0.00,,2013-02-23 16:51:00,
2013-02-23 10:01:00,17.0,9.0,-100.00,WSW,240,9.0,17.0,71,-99.99,,,0.00,,2013-02-23 17:01:00,
2013-02-23 10:11:00,17.0,9.0,-100.00,SW,230,11.0,13.0,72,-99.99,,,0.00,,2013-02-23 17:11:00,
2013-02-23 10:21:00,17.0,9.0,-100.00,SW,230,11.0,13.0,72,-99.99,,,0.00,,2013-02-23 17:21:00,
2013-02-23 10:31:00,18.0,9.0,-100.00,SW,225,12.0,21.0,69,-99.99,,,0.00,,2013-02-23 17:31:00,
2013-02-23 10:42:00,18.0,9.0,-100.00,SW,225,12.0,21.0,69,-99.99,,,0.00,,2013-02-23 17:42:00,
2013-02-23 10:52:00,18.0,9.0,-100.00,SW,225,12.0,21.0,69,-99.99,,,0.00,,2013-02-23 17:52:00,
2013-02-23 11:01:00,18.0,9.0,-100.00,SW,225,12.0,21.0,69,-99.99,,,0.00,,2013-02-23 18:01:00,
2013-02-23 11:12:00,18.0,8.0,-100.00,WSW,250,13.0,17.0,66,-99.99,,,0.00,,2013-02-23 18:12:00,
2013-02-23 11:21:00,18.0,8.0,-100.00,WSW,250,13.0,17.0,66,-99.99,,,0.00,,2013-02-23 18:21:00,
2013-02-23 11:31:00,18.0,10.0,-100.00,SW,225,12.0,14.0,68,-99.99,,,0.00,,2013-02-23 18:31:00,
2013-02-23 11:41:00,18.0,10.0,-100.00,SW,225,12.0,14.0,68,-99.99,,,0.00,,2013-02-23 18:41:00,
2013-02-23 11:51:00,18.0,10.0,-100.00,SW,225,12.0,14.0,68,-99.99,,,0.00,,2013-02-23 18:51:00,
2013-02-23 12:11:00,19.0,7.0,-100.00,West,280,12.0,20.0,60,-99.99,,,0.00,,2013-02-23 19:11:00,
2013-02-23 12:21:00,19.0,7.0,-100.00,West,280,12.0,20.0,60,-99.99,,,0.00,,2013-02-23 19:21:00,
2013-02-23 12:32:00,19.0,7.0,-100.00,West,280,12.0,20.0,60,-99.99,,,0.00,,2013-02-23 19:32:00,
2013-02-23 13:00:00,20.0,8.0,-100.00,West,260,11.0,14.0,58,-99.99,,,0.00,,2013-02-23 20:00:00,
2013-02-23 13:11:00,19.0,8.0,-100.00,SW,235,11.0,14.0,62,-99.99,,,0.00,,2013-02-23 20:11:00,
2013-02-23 13:21:00,19.0,8.0,-100.00,SW,235,11.0,14.0,62,-99.99,,,0.00,,2013-02-23 20:21:00,
2013-02-23 13:31:00,20.0,8.0,-100.00,West,260,11.0,14.0,58,-99.99,,,0.00,,2013-02-23 20:31:00,
2013-02-23 13:41:00,20.0,8.0,-100.00,West,260,11.0,14.0,58,-99.99,,,0.00,,2013-02-23 20:41:00,
2013-02-23 13:52:00,20.0,8.0,-100.00,West,260,11.0,14.0,58,-99.99,,,0.00,,2013-02-23 20:52:00,
2013-02-23 14:00:00,21.0,8.0,-100.00,WNW,285,11.0,15.0,56,-99.99,,,0.00,,2013-02-23 21:00:00,
2013-02-23 14:11:00,20.0,8.0,-100.00,SW,230,17.0,19.0,60,-99.99,,,0.00,,2013-02-23 21:11:00,
2013-02-23 14:22:00,20.0,8.0,-100.00,SW,230,17.0,19.0,60,-99.99,,,0.00,,2013-02-23 21:22:00,
2013-02-23 14:31:00,21.0,8.0,-100.00,WNW,285,11.0,15.0,56,-99.99,,,0.00,,2013-02-23 21:31:00,
2013-02-23 14:41:00,21.0,8.0,-100.00,WNW,285,11.0,15.0,56,-99.99,,,0.00,,2013-02-23 21:41:00,
2013-02-23 14:51:00,21.0,8.0,-100.00,WNW,285,11.0,15.0,56,-99.99,,,0.00,,2013-02-23 21:51:00,
2013-02-23 15:00:00,21.0,10.0,-100.00,WNW,300,6.0,14.0,62,-99.99,,,0.00,,2013-02-23 22:00:00,
2013-02-23 15:11:00,21.0,10.0,-100.00,NW,305,10.0,17.0,62,-99.99,,,0.00,,2013-02-23 22:11:00,
2013-02-23 15:21:00,21.0,10.0,-100.00,NW,305,10.0,17.0,62,-99.99,,,0.00,,2013-02-23 22:21:00,
2013-02-23 15:31:00,21.0,10.0,-100.00,WNW,300,6.0,14.0,62,-99.99,,,0.00,,2013-02-23 22:31:00,
2013-02-23 15:41:00,21.0,10.0,-100.00,WNW,300,6.0,14.0,62,-99.99,,,0.00,,2013-02-23 22:41:00,
2013-02-23 15:51:00,21.0,10.0,-100.00,WNW,300,6.0,14.0,62,-99.99,,,0.00,,2013-02-23 22:51:00,
2013-02-23 16:01:00,20.0,11.0,-100.00,WNW,295,9.0,13.0,69,-99.99,,,0.00,,2013-02-23 23:01:00,
2013-02-23 16:11:00,20.0,11.0,-100.00,West,265,6.0,14.0,69,-99.99,,,0.00,,2013-02-23 23:11:00,
2013-02-23 16:21:00,20.0,11.0,-100.00,West,265,6.0,14.0,69,-99.99,,,0.00,,2013-02-23 23:21:00,
2013-02-23 16:31:00,20.0,11.0,-100.00,WNW,295,9.0,13.0,69,-99.99,,,0.00,,2013-02-23 23:31:00,
2013-02-23 16:41:00,20.0,11.0,-100.00,WNW,295,9.0,13.0,69,-99.99,,,0.00,,2013-02-23 23:41:00,
2013-02-23 16:52:00,20.0,11.0,-100.00,WNW,295,9.0,13.0,69,-99.99,,,0.00,,2013-02-23 23:52:00,
2013-02-23 17:00:00,19.0,12.0,-100.00,WSW,250,9.0,16.0,75,-99.99,,,0.00,,2013-02-24 00:00:00,
2013-02-23 17:11:00,20.0,12.0,-100.00,West,275,9.0,15.0,71,-99.99,,,0.00,,2013-02-24 00:11:00,
2013-02-23 17:22:00,20.0,12.0,-100.00,West,275,9.0,15.0,71,-99.99,,,0.00,,2013-02-24 00:22:00,
2013-02-23 17:32:00,19.0,12.0,-100.00,WSW,250,9.0,16.0,75,-99.99,,,0.00,,2013-02-24 00:32:00,
2013-02-23 17:42:00,19.0,12.0,-100.00,WSW,250,9.0,16.0,75,-99.99,,,0.00,,2013-02-24 00:42:00,
2013-02-23 17:52:00,19.0,12.0,-100.00,WSW,250,9.0,16.0,75,-99.99,,,0.00,,2013-02-24 00:52:00,
2013-02-23 18:00:00,19.0,12.0,-100.00,West,265,6.0,11.0,74,-99.99,,,0.00,,2013-02-24 01:00:00,
2013-02-23 18:31:00,19.0,12.0,-100.00,West,265,6.0,11.0,74,-99.99,,,0.00,,2013-02-24 01:31:00,
2013-02-23 18:41:00,19.0,12.0,-100.00,West,265,6.0,11.0,74,-99.99,,,0.00,,2013-02-24 01:41:00,
2013-02-23 18:51:00,19.0,12.0,-100.00,West,265,6.0,11.0,74,-99.99,,,0.00,,2013-02-24 01:51:00,
2013-02-23 19:01:00,19.0,11.0,-100.00,West,260,9.0,12.0,71,-99.99,,,0.00,,2013-02-24 02:01:00,
2013-02-23 19:11:00,19.0,12.0,-100.00,West,265,6.0,9.0,74,-99.99,,,0.00,,2013-02-24 02:11:00,
2013-02-23 19:21:00,19.0,12.0,-100.00,West,265,6.0,9.0,74,-99.99,,,0.00,,2013-02-24 02:21:00,
2013-02-23 19:31:00,19.0,11.0,-100.00,West,260,9.0,12.0,71,-99.99,,,0.00,,2013-02-24 02:31:00,
2013-02-23 19:41:00,19.0,11.0,-100.00,West,260,9.0,12.0,71,-99.99,,,0.00,,2013-02-24 02:41:00,
2013-02-23 19:52:00,19.0,11.0,-100.00,West,260,9.0,12.0,71,-99.99,,,0.00,,2013-02-24 02:52:00,
2013-02-23 20:01:00,18.0,12.0,-100.00,NW,305,8.0,12.0,78,-99.99,,,0.00,,2013-02-24 03:01:00,
2013-02-23 20:11:00,18.0,11.0,-100.00,West,265,9.0,13.0,72,-99.99,,,0.00,,2013-02-24 03:11:00,
2013-02-23 20:21:00,18.0,11.0,-100.00,West,265,9.0,13.0,72,-99.99,,,0.00,,2013-02-24 03:21:00,
2013-02-23 20:31:00,18.0,12.0,-100.00,NW,305,8.0,12.0,78,-99.99,,,0.00,,2013-02-24 03:31:00,
2013-02-23 20:42:00,18.0,12.0,-100.00,NW,305,8.0,12.0,78,-99.99,,,0.00,,2013-02-24 03:42:00,
2013-02-23 20:52:00,18.0,12.0,-100.00,NW,305,8.0,12.0,78,-99.99,,,0.00,,2013-02-24 03:52:00,
2013-02-23 21:11:00,18.0,13.0,-100.00,WNW,285,6.0,11.0,79,-99.99,,,0.00,,2013-02-24 04:11:00,
2013-02-23 21:21:00,18.0,13.0,-100.00,WNW,285,6.0,11.0,79,-99.99,,,0.00,,2013-02-24 04:21:00,
2013-02-23 22:01:00,17.0,11.0,-100.00,SW,215,1.0,4.0,76,-99.99,,,0.00,,2013-02-24 05:01:00,
2013-02-23 22:11:00,17.0,12.0,-100.00,South,175,1.0,2.0,78,-99.99,,,0.00,,2013-02-24 05:11:00,
2013-02-23 22:21:00,17.0,12.0,-100.00,South,175,1.0,2.0,78,-99.99,,,0.00,,2013-02-24 05:21:00,
2013-02-23 22:32:00,17.0,11.0,-100.00,SW,215,1.0,4.0,76,-99.99,,,0.00,,2013-02-24 05:32:00,
2013-02-23 22:42:00,17.0,11.0,-100.00,SW,215,1.0,4.0,76,-99.99,,,0.00,,2013-02-24 05:42:00,
2013-02-23 22:52:00,17.0,11.0,-100.00,SW,215,1.0,4.0,76,-99.99,,,0.00,,2013-02-24 05:52:00,
2013-02-23 23:01:00,17.0,10.0,-100.00,West,270,1.0,3.0,74,-99.99,,,0.00,,2013-02-24 06:01:00,
2013-02-23 23:11:00,17.0,10.0,-100.00,West,260,5.0,7.0,71,-99.99,,,0.00,,2013-02-24 06:11:00,
2013-02-23 23:21:00,17.0,10.0,-100.00,West,260,5.0,7.0,71,-99.99,,,0.00,,2013-02-24 06:21:00,
2013-02-23 23:31:00,17.0,10.0,-100.00,West,270,1.0,3.0,74,-99.99,,,0.00,,2013-02-24 06:31:00,
2013-02-23 23:41:00,17.0,10.0,-100.00,West,270,1.0,3.0,74,-99.99,,,0.00,,2013-02-24 06:41:00,
2013-02-23 23:52:00,17.0,10.0,-100.00,West,270,1.0,3.0,74,-99.99,,,0.00,,2013-02-24 06:52:00,